Time;durP1;ratioP1;P1;durP2;ratioP2;P2;SDS_P1;SDS_P2;PMS_P1;PMS_P2;Temp;Humidity;BMP_temperature;BMP_pressure;BME280_temperature;BME280_humidity;BME280_pressure;Samples;Min_cycle;Max_cycle;Signal;HPM_P1;HPM_P2
2022/10/13 00:00:57;;;;;;;21.90;13.68;;;10.20;99.90;;;-144.05;80.34;125687.94;5057032;28;20041;-86
2022/10/13 00:03:23;;;;;;;19.40;12.45;;;10.20;99.90;;;-144.05;80.10;125687.94;5057254;28;20484;-85
2022/10/13 00:05:50;;;;;;;22.83;12.85;;;10.20;99.90;;;-144.05;79.59;125687.94;5056668;28;20116;-86
2022/10/13 00:08:21;;;;;;;20.80;12.60;;;10.20;99.90;;;-144.05;79.25;125687.94;5073649;28;20480;-84
2022/10/13 00:10:49;;;;;;;23.98;12.80;;;10.20;99.90;;;-144.05;79.16;125687.94;5056979;28;20043;-86
2022/10/13 00:13:17;;;;;;;21.00;12.07;;;10.20;99.90;;;-144.05;78.73;125687.94;5056883;28;20035;-85
2022/10/13 00:15:46;;;;;;;26.42;13.45;;;10.20;99.90;;;-144.05;78.83;125687.94;5056898;28;20032;-84
2022/10/13 00:18:14;;;;;;;28.10;13.10;;;10.20;99.90;;;-144.05;79.02;125687.94;5074987;28;20035;-87
2022/10/13 00:20:49;;;;;;;21.13;11.90;;;10.20;99.90;;;-144.05;79.02;125687.94;5073565;28;20044;-86
2022/10/13 00:23:16;;;;;;;19.65;11.48;;;10.20;99.90;;;-144.05;78.70;125687.94;5056834;28;20035;-85
2022/10/13 00:25:48;;;;;;;21.55;11.52;;;10.30;99.90;;;-144.05;78.75;125687.94;5057489;28;20441;-87
2022/10/13 00:28:17;;;;;;;22.98;12.05;;;10.30;99.90;;;-144.05;78.24;125687.94;5074102;28;20048;-86
2022/10/13 00:30:45;;;;;;;21.60;11.40;;;10.30;99.90;;;-144.05;78.58;125687.94;5074177;28;20051;-86
2022/10/13 00:33:12;;;;;;;19.20;11.57;;;10.30;99.90;;;-144.05;78.77;125687.94;5057625;28;20506;-86
2022/10/13 00:35:46;;;;;;;21.27;11.93;;;10.30;99.90;;;-144.05;78.66;125687.94;5074380;28;20036;-86
2022/10/13 00:38:15;;;;;;;20.13;12.38;;;10.40;99.90;;;-144.05;78.36;125687.94;5057689;28;20021;-87
2022/10/13 00:40:56;;;;;;;23.00;12.65;;;10.40;99.90;;;-144.05;78.70;125687.94;5057970;28;20033;-86
2022/10/13 00:43:46;;;;;;;29.80;12.43;;;10.40;99.90;;;-144.05;78.58;125687.94;5058090;28;20059;-86
2022/10/13 00:46:13;;;;;;;19.52;11.90;;;10.30;99.90;;;-144.05;78.67;125687.94;5056441;28;20039;-87
2022/10/13 00:48:42;;;;;;;21.08;12.73;;;10.40;99.90;;;-144.05;78.80;125687.94;5058221;28;20085;-85
2022/10/13 00:51:13;;;;;;;19.90;10.60;;;10.40;99.90;;;-144.05;78.58;125687.94;5057714;28;20031;-87
2022/10/13 00:53:40;;;;;;;19.70;10.57;;;10.40;99.90;;;-144.05;78.11;125687.94;5057443;28;20092;-85
2022/10/13 00:56:10;;;;;;;22.85;11.88;;;10.50;99.90;;;-144.05;78.63;125687.94;5076368;28;20075;-87
2022/10/13 00:58:39;;;;;;;20.63;11.98;;;10.40;99.90;;;-144.05;78.07;125687.94;5074058;28;20097;-86
2022/10/13 01:01:06;;;;;;;26.17;12.27;;;10.40;99.90;;;-144.05;78.02;125687.94;5074699;28;20077;-87
2022/10/13 01:03:35;;;;;;;21.67;12.60;;;10.40;99.90;;;-144.05;78.31;125687.94;5057988;28;20024;-88
2022/10/13 01:06:06;;;;;;;22.73;11.88;;;10.40;99.90;;;-144.05;78.06;125687.94;5075168;28;20147;-86
2022/10/13 01:08:33;;;;;;;22.58;11.48;;;10.40;99.90;;;-144.05;77.88;125687.94;5058197;28;20119;-87
2022/10/13 01:11:25;;;;;;;20.10;11.52;;;10.40;99.90;;;-144.05;78.53;125687.94;5057523;28;20044;-88
2022/10/13 01:14:26;;;;;;;23.48;11.48;;;10.40;99.90;;;-144.05;78.58;125687.94;5075986;28;20108;-88
2022/10/13 01:17:29;;;;;;;22.90;12.82;;;10.30;99.90;;;-144.05;78.55;125687.94;5085822;28;20055;-86
2022/10/13 01:20:29;;;;;;;24.60;11.52;;;10.30;99.90;;;-144.05;78.89;125687.94;5088555;28;20051;-87
2022/10/13 01:23:33;;;;;;;20.23;11.75;;;10.30;99.90;;;-144.05;78.88;125687.94;5088632;28;20435;-86
2022/10/13 01:26:23;;;;;;;21.52;12.05;;;10.30;99.90;;;-144.05;78.77;125687.94;5058333;28;20017;-84
2022/10/13 01:29:22;;;;;;;22.60;11.68;;;10.30;99.90;;;-144.05;78.80;125687.94;5074774;28;20056;-84
2022/10/13 01:32:19;;;;;;;17.65;10.13;;;10.30;99.90;;;-144.05;78.78;125687.94;5075684;28;20024;-87
2022/10/13 01:35:16;;;;;;;18.40;10.38;;;10.40;99.90;;;-144.05;78.51;125687.94;5056979;28;20039;-87
2022/10/13 01:38:22;;;;;;;19.00;11.02;;;10.40;99.90;;;-144.05;78.55;125687.94;5074053;28;20395;-88
2022/10/13 01:41:08;;;;;;;23.13;11.63;;;10.40;99.90;;;-144.05;78.28;125687.94;5072170;28;20047;-86
2022/10/13 01:43:46;;;;;;;20.52;10.80;;;10.40;99.90;;;-144.05;77.95;125687.94;5076036;28;20067;-86
2022/10/13 01:46:23;;;;;;;18.48;10.23;;;10.30;99.90;;;-144.05;78.31;125687.94;5077125;28;20035;-87
2022/10/13 01:48:57;;;;;;;20.40;11.00;;;10.40;99.90;;;-144.05;78.76;125687.94;5075801;28;20035;-86
2022/10/13 01:51:28;;;;;;;22.15;12.00;;;10.30;99.90;;;-144.05;78.95;125687.94;5076005;28;20050;-87
2022/10/13 01:53:54;;;;;;;20.73;10.88;;;10.30;99.90;;;-144.05;78.68;125687.94;5076730;28;20029;-87
2022/10/13 01:56:20;;;;;;;22.52;11.82;;;10.40;99.90;;;-144.05;78.95;125687.94;5058648;28;20028;-85
2022/10/13 01:58:51;;;;;;;22.13;11.90;;;10.30;99.90;;;-144.05;79.07;125687.94;5076210;28;20384;-84
2022/10/13 02:01:56;;;;;;;19.25;11.18;;;10.40;99.90;;;-144.05;78.87;125687.94;5078205;28;20043;-85
2022/10/13 02:04:51;;;;;;;18.17;10.52;;;10.40;99.90;;;-144.05;78.57;125687.94;5072508;28;20369;-86
2022/10/13 02:07:37;;;;;;;27.75;12.23;;;10.40;99.90;;;-144.05;78.47;125687.94;5054581;28;20115;-86
2022/10/13 02:10:21;;;;;;;;;;;10.50;99.90;;;-144.05;78.10;125687.94;5054880;28;20086;-84
2022/10/13 02:13:10;;;;;;;19.58;10.63;;;10.50;99.90;;;-144.05;78.48;125687.94;5054277;28;20264;-86
2022/10/13 02:15:45;;;;;;;21.20;10.20;;;10.50;99.90;;;-144.05;78.16;125687.94;5071170;28;20025;-85
2022/10/13 02:18:18;;;;;;;20.35;11.02;;;10.60;99.90;;;-144.05;77.91;125687.94;5071180;28;22327;-86
2022/10/13 02:20:46;;;;;;;21.90;11.93;;;10.60;99.90;;;-144.05;78.31;125687.94;5071123;28;20056;-84
2022/10/13 02:23:17;;;;;;;21.88;11.50;;;10.50;99.90;;;-144.05;78.05;125687.94;5054079;28;20119;-85
2022/10/13 02:25:45;;;;;;;22.13;11.07;;;10.60;99.90;;;-144.05;77.99;125687.94;5054197;28;20017;-85
2022/10/13 02:28:14;;;;;;;21.33;11.15;;;10.60;99.90;;;-144.05;78.04;125687.94;5070514;28;20031;-85
2022/10/13 02:30:41;;;;;;;25.73;11.95;;;10.50;99.90;;;-144.05;78.36;125687.94;5070590;28;20025;-86
2022/10/13 02:33:09;;;;;;;19.10;10.45;;;10.60;99.90;;;-144.05;78.61;125687.94;5070781;28;20028;-84
2022/10/13 02:35:35;;;;;;;19.38;10.50;;;10.60;99.90;;;-144.05;78.63;125687.94;5054284;28;20028;-85
2022/10/13 02:38:01;;;;;;;21.42;11.65;;;10.60;99.90;;;-144.05;79.07;125687.94;5053627;28;20025;-86
2022/10/13 02:40:27;;;;;;;19.10;11.00;;;10.60;99.90;;;-144.05;78.45;125687.94;5070712;28;20166;-84
2022/10/13 02:42:53;;;;;;;22.15;11.95;;;10.60;99.90;;;-144.05;78.84;125687.94;5070396;28;20063;-86
2022/10/13 02:45:19;;;;;;;21.90;11.93;;;10.60;99.90;;;-144.05;79.00;125687.94;5053563;28;20029;-85
2022/10/13 02:47:45;;;;;;;22.17;11.30;;;10.60;99.90;;;-144.05;78.55;125687.94;5070767;28;20020;-86
2022/10/13 02:50:11;;;;;;;19.83;11.68;;;10.60;99.90;;;-144.05;78.63;125687.94;5070618;28;20032;-85
2022/10/13 02:52:37;;;;;;;22.70;11.38;;;10.70;99.90;;;-144.05;78.99;125687.94;5070462;28;20059;-84
2022/10/13 02:55:05;;;;;;;22.40;11.55;;;10.70;99.90;;;-144.05;78.75;125687.94;5053607;28;20438;-85
2022/10/13 02:57:30;;;;;;;19.88;10.52;;;10.80;99.90;;;-144.05;78.98;125687.94;5053692;28;20395;-85
2022/10/13 02:59:56;;;;;;;22.42;12.00;;;10.80;99.90;;;-144.05;78.46;125687.94;5053489;28;20128;-85
2022/10/13 03:02:22;;;;;;;20.27;11.35;;;10.90;99.90;;;-144.05;78.41;125687.94;5070903;28;20029;-86
2022/10/13 03:04:49;;;;;;;18.00;10.40;;;11.00;99.90;;;-144.05;78.23;125687.94;5071197;28;20024;-87
2022/10/13 03:07:15;;;;;;;19.00;11.23;;;11.00;99.90;;;-144.05;78.45;125687.94;5071437;28;20107;-85
2022/10/13 03:09:41;;;;;;;24.02;11.80;;;11.00;99.90;;;-144.05;77.94;125687.94;5074631;28;20421;-85
2022/10/13 03:12:07;;;;;;;19.55;10.65;;;11.10;99.90;;;-144.05;78.13;125687.94;5057049;28;20039;-85
2022/10/13 03:14:33;;;;;;;23.67;10.77;;;11.10;99.90;;;-144.05;78.13;125687.94;5075273;28;20032;-86
2022/10/13 03:16:59;;;;;;;22.30;10.88;;;11.20;99.90;;;-144.05;78.01;125687.94;5073907;28;20119;-86
2022/10/13 03:19:24;;;;;;;24.38;11.50;;;11.20;99.90;;;-144.05;77.53;125687.94;5056606;28;20032;-85
2022/10/13 03:21:50;;;;;;;22.20;10.82;;;11.20;99.90;;;-144.05;77.40;125687.94;5074889;28;20055;-86
2022/10/13 03:24:17;;;;;;;19.48;10.10;;;11.30;99.90;;;-144.05;77.26;125687.94;5057224;28;20094;-86
2022/10/13 03:26:42;;;;;;;18.08;10.48;;;11.30;99.90;;;-144.05;77.02;125687.94;5075129;28;20104;-84
2022/10/13 03:29:17;;;;;;;20.23;10.30;;;11.30;99.90;;;-144.05;76.97;125687.94;5075032;28;20115;-87
2022/10/13 03:31:43;;;;;;;21.10;10.07;;;11.30;99.90;;;-144.05;76.92;125687.94;5073740;28;20040;-85
2022/10/13 03:34:11;;;;;;;19.48;10.25;;;11.40;99.90;;;-144.05;76.74;125687.94;5073825;28;20039;-85
2022/10/13 03:36:38;;;;;;;17.02;10.00;;;11.40;99.90;;;-144.05;76.30;125687.94;5056864;28;20060;-85
2022/10/13 03:39:05;;;;;;;18.65;10.35;;;11.30;99.90;;;-144.05;76.54;125687.94;5057706;28;20029;-88
2022/10/13 03:41:31;;;;;;;20.13;11.60;;;11.30;99.90;;;-144.05;76.52;125687.94;5074719;28;20029;-86
2022/10/13 03:43:57;;;;;;;18.67;10.55;;;11.30;99.90;;;-144.05;77.16;125687.94;5074835;28;20086;-85
2022/10/13 03:46:28;;;;;;;27.85;10.68;;;11.20;99.90;;;-144.05;76.73;125687.94;5073751;28;20035;-86
2022/10/13 03:48:54;;;;;;;15.95;10.25;;;11.30;99.90;;;-144.05;77.21;125687.94;5074637;28;20031;-87
2022/10/13 03:51:22;;;;;;;25.30;10.55;;;11.30;99.90;;;-144.05;77.34;125687.94;5074944;28;20078;-85
2022/10/13 03:53:51;;;;;;;23.80;11.02;;;11.30;99.90;;;-144.05;77.62;125687.94;5073469;28;20553;-88
2022/10/13 03:56:24;;;;;;;22.90;10.95;;;11.30;99.90;;;-144.05;76.97;125687.94;5075041;28;20115;-85
2022/10/13 03:58:54;;;;;;;21.77;10.70;;;11.30;99.90;;;-144.05;77.08;125687.94;5073759;28;20028;-86
2022/10/13 04:01:28;;;;;;;23.70;11.35;;;11.30;99.90;;;-144.05;77.08;125687.94;5075078;28;20024;-86
2022/10/13 04:03:57;;;;;;;22.13;11.55;;;11.30;99.90;;;-144.05;76.79;125687.94;5059532;28;20039;-87
2022/10/13 04:06:25;;;;;;;21.30;10.52;;;11.30;99.90;;;-144.05;76.57;125687.94;5076984;28;20424;-87
2022/10/13 04:08:52;;;;;;;17.35;10.80;;;11.30;99.90;;;-144.05;76.40;125687.94;5060105;28;20055;-87
2022/10/13 04:11:19;;;;;;;16.88;10.50;;;11.30;99.90;;;-144.05;76.81;125687.94;5084623;28;20025;-85
2022/10/13 04:13:45;;;;;;;23.05;10.07;;;11.30;99.90;;;-144.05;76.51;125687.94;5094909;28;20033;-87
2022/10/13 04:16:20;;;;;;;20.38;11.27;;;11.20;99.90;;;-144.05;76.42;125687.94;5081831;28;20032;-88
2022/10/13 04:19:03;;;;;;;20.50;11.45;;;11.30;99.90;;;-144.05;76.31;125687.94;5078559;28;20029;-88
2022/10/13 04:21:32;;;;;;;16.92;10.05;;;11.20;99.90;;;-144.05;76.27;125687.94;5079641;28;20487;-87
2022/10/13 04:24:00;;;;;;;17.80;10.48;;;11.20;99.90;;;-144.05;76.69;125687.94;5079567;28;20028;-86
2022/10/13 04:26:31;;;;;;;20.52;10.98;;;11.20;99.90;;;-144.05;76.90;125687.94;5066649;28;20119;-85
2022/10/13 04:28:58;;;;;;;20.90;9.57;;;11.20;99.90;;;-144.05;76.49;125687.94;5067538;28;20039;-87
2022/10/13 04:31:26;;;;;;;18.48;10.98;;;11.10;99.90;;;-144.05;76.54;125687.94;5065868;28;20227;-87
2022/10/13 04:33:53;;;;;;;18.20;10.02;;;11.20;99.90;;;-144.05;76.99;125687.94;5060247;28;20029;-86
2022/10/13 04:36:20;;;;;;;17.10;9.68;;;11.10;99.90;;;-144.05;76.78;125687.94;5077365;28;20028;-86
2022/10/13 04:38:46;;;;;;;18.75;10.77;;;11.10;99.90;;;-144.05;76.88;125687.94;5077195;28;20024;-88
2022/10/13 04:41:16;;;;;;;21.92;10.35;;;11.10;99.90;;;-144.05;76.57;125687.94;5077862;28;20094;-85
2022/10/13 04:43:42;;;;;;;19.45;11.32;;;11.00;99.90;;;-144.05;77.00;125687.94;5077732;28;20025;-87
2022/10/13 04:46:20;;;;;;;21.08;11.20;;;11.00;99.90;;;-144.05;77.11;125687.94;5077016;28;20088;-88
2022/10/13 04:48:46;;;;;;;24.08;10.95;;;11.00;99.90;;;-144.05;77.07;125687.94;5076641;28;20036;-86
2022/10/13 04:51:23;;;;;;;19.50;10.18;;;11.00;99.90;;;-144.05;77.01;125687.94;5058209;28;20085;-87
2022/10/13 04:54:00;;;;;;;18.13;10.13;;;11.00;99.90;;;-144.05;77.31;125687.94;5076377;28;20032;-87
2022/10/13 04:56:27;;;;;;;19.60;9.98;;;11.00;99.90;;;-144.05;77.17;125687.94;5058782;28;20174;-86
2022/10/13 04:58:53;;;;;;;18.05;10.68;;;11.00;99.90;;;-144.05;77.24;125687.94;5057810;28;20128;-84
2022/10/13 05:01:23;;;;;;;17.92;10.05;;;11.00;99.90;;;-144.05;77.17;125687.94;5074130;28;20025;-84
2022/10/13 05:03:58;;;;;;;22.10;10.70;;;10.90;99.90;;;-144.05;77.19;125687.94;5075517;28;20028;-87
2022/10/13 05:06:35;;;;;;;23.23;11.15;;;10.90;99.90;;;-144.05;76.98;125687.94;5073660;28;20025;-87
2022/10/13 05:09:02;;;;;;;23.33;12.45;;;11.00;99.90;;;-144.05;77.21;125687.94;5057437;28;20377;-87
2022/10/13 05:11:30;;;;;;;20.58;10.35;;;10.90;99.90;;;-144.05;77.14;125687.94;5058637;28;20040;-88
2022/10/13 05:13:58;;;;;;;21.30;10.35;;;11.00;99.90;;;-144.05;77.16;125687.94;5058630;28;20033;-86
2022/10/13 05:16:25;;;;;;;24.45;10.98;;;11.00;99.90;;;-144.05;77.53;125687.94;5057881;28;20388;-88
2022/10/13 05:18:54;;;;;;;21.67;10.85;;;11.00;99.90;;;-144.05;77.78;125687.94;5059505;28;20103;-89
2022/10/13 05:21:25;;;;;;;23.40;10.65;;;11.10;99.90;;;-144.05;77.45;125687.94;5059832;28;20029;-87
2022/10/13 05:23:54;;;;;;;18.95;11.65;;;11.10;99.90;;;-144.05;77.16;125687.94;5077675;28;20016;-89
2022/10/13 05:26:28;;;;;;;21.70;10.70;;;11.20;99.90;;;-144.05;76.89;125687.94;5078182;28;20017;-88
2022/10/13 05:28:56;;;;;;;17.63;10.65;;;11.20;99.90;;;-144.05;76.94;125687.94;5077843;28;20078;-90
2022/10/13 05:31:25;;;;;;;19.83;9.65;;;11.20;99.90;;;-144.05;76.88;125687.94;5077857;28;20108;-87
2022/10/13 05:33:52;;;;;;;23.23;10.73;;;11.30;99.90;;;-144.05;76.86;125687.94;5076540;28;20035;-88
2022/10/13 05:36:34;;;;;;;20.10;10.57;;;11.20;99.90;;;-144.05;76.97;125687.94;5075989;28;20036;-87
2022/10/13 05:39:04;;;;;;;24.40;10.10;;;11.20;99.90;;;-144.05;76.44;125687.94;5060253;28;20024;-85
2022/10/13 05:41:31;;;;;;;17.85;11.02;;;11.30;99.90;;;-144.05;75.94;125687.94;5060228;28;20025;-86
2022/10/13 05:44:06;;;;;;;23.20;10.77;;;11.30;99.90;;;-144.05;75.87;125687.94;5075567;28;20093;-86
2022/10/13 05:46:32;;;;;;;19.48;10.45;;;11.30;99.90;;;-144.05;76.15;125687.94;5074530;28;20040;-87
2022/10/13 05:48:58;;;;;;;20.85;9.60;;;11.30;99.90;;;-144.05;75.90;125687.94;5074341;28;20025;-87
2022/10/13 05:51:35;;;;;;;21.50;9.77;;;11.40;99.90;;;-144.05;75.80;125687.94;5059314;28;20430;-86
2022/10/13 05:54:14;;;;;;;21.25;10.38;;;11.40;99.90;;;-144.05;75.59;125687.94;5059104;28;20033;-85
2022/10/13 05:57:15;;;;;;;19.58;10.45;;;11.40;99.90;;;-144.05;75.44;125687.94;5075682;28;20472;-86
2022/10/13 06:00:00;;;;;;;25.52;10.35;;;11.40;99.90;;;-144.05;74.99;125687.94;5078088;28;20399;-86
2022/10/13 06:02:36;;;;;;;23.42;11.73;;;11.40;99.90;;;-144.05;75.42;125687.94;5059545;28;20115;-84
2022/10/13 06:05:10;;;;;;;18.50;10.48;;;11.40;99.90;;;-144.05;75.10;125687.94;5077246;28;20055;-86
2022/10/13 06:07:36;;;;;;;20.98;11.00;;;11.40;99.90;;;-144.05;74.78;125687.94;5076638;28;20033;-88
2022/10/13 06:10:03;;;;;;;18.20;9.57;;;11.40;99.90;;;-144.05;75.28;125687.94;5076893;28;20124;-86
2022/10/13 06:12:29;;;;;;;16.05;9.90;;;11.50;99.90;;;-144.05;75.08;125687.94;5078909;28;20032;-85
2022/10/13 06:14:54;;;;;;;18.67;9.48;;;11.40;99.90;;;-144.05;75.00;125687.94;5062206;28;20135;-86
2022/10/13 06:17:20;;;;;;;24.40;9.40;;;11.50;99.90;;;-144.05;75.01;125687.94;5067556;28;20021;-82
2022/10/13 06:19:46;;;;;;;20.33;9.13;;;11.50;99.90;;;-144.05;74.82;125687.94;5083245;28;20025;-87
2022/10/13 06:22:12;;;;;;;16.92;9.00;;;11.50;99.90;;;-144.05;74.26;125687.94;5058976;28;20025;-85
2022/10/13 06:24:38;;;;;;;19.08;9.98;;;11.50;99.90;;;-144.05;73.96;125687.94;5058848;28;20021;-87
2022/10/13 06:27:04;;;;;;;25.00;10.25;;;11.50;99.90;;;-144.05;74.24;125687.94;5058230;28;20028;-88
2022/10/13 06:29:31;;;;;;;22.27;9.65;;;11.50;99.90;;;-144.05;73.89;125687.94;5073747;28;20032;-85
2022/10/13 06:31:57;;;;;;;20.27;8.80;;;11.60;99.90;;;-144.05;74.02;125687.94;5057251;28;20029;-87
2022/10/13 06:34:23;;;;;;;19.75;9.43;;;11.60;99.90;;;-144.05;73.74;125687.94;5060473;28;20033;-88
2022/10/13 06:36:49;;;;;;;16.33;8.57;;;11.60;99.90;;;-144.05;73.94;125687.94;5078435;28;20032;-88
2022/10/13 06:39:15;;;;;;;17.88;8.43;;;11.60;99.90;;;-144.05;74.07;125687.94;5062751;28;20163;-89
2022/10/13 06:41:40;;;;;;;18.88;9.43;;;11.60;99.90;;;-144.05;73.57;125687.94;5081648;28;20106;-86
2022/10/13 06:44:06;;;;;;;16.48;9.50;;;11.60;99.90;;;-144.05;73.23;125687.94;5069797;28;20039;-88
2022/10/13 06:46:32;;;;;;;14.65;8.85;;;11.60;99.90;;;-144.05;73.09;125687.94;5084322;28;20028;-85
2022/10/13 06:48:58;;;;;;;16.50;9.15;;;11.70;99.90;;;-144.05;72.84;125687.94;5079657;28;20392;-86
2022/10/13 06:51:24;;;;;;;19.17;9.23;;;11.80;99.90;;;-144.05;72.70;125687.94;5062058;28;20025;-85
2022/10/13 06:53:50;;;;;;;16.05;8.40;;;11.80;99.90;;;-144.05;72.21;125687.94;5061468;28;20025;-85
2022/10/13 06:56:16;;;;;;;17.73;9.07;;;11.80;99.90;;;-144.05;71.94;125687.94;5079846;28;20028;-88
2022/10/13 06:58:42;;;;;;;14.38;7.68;;;11.90;99.90;;;-144.05;71.88;125687.94;5081351;28;20445;-87
2022/10/13 07:01:12;;;;;;;16.67;8.75;;;12.00;99.90;;;-144.05;71.31;125687.94;5062403;28;20082;-86
2022/10/13 07:03:38;;;;;;;13.20;7.32;;;12.00;99.90;;;-144.05;71.55;125687.94;5063154;28;20029;-88
2022/10/13 07:06:06;;;;;;;16.10;8.55;;;12.10;99.90;;;-144.05;71.18;125687.94;5062746;28;20219;-89
2022/10/13 07:08:33;;;;;;;15.48;8.25;;;12.10;99.90;;;-144.05;70.78;125687.94;5062249;28;20323;-87
2022/10/13 07:11:12;;;;;;;14.00;7.43;;;12.20;99.90;;;-144.05;70.32;125687.94;5078629;28;20443;-87
2022/10/13 07:13:39;;;;;;;18.27;7.75;;;12.20;99.90;;;-144.05;70.47;125687.94;5062249;28;20056;-88
2022/10/13 07:16:07;;;;;;;13.93;7.97;;;12.30;99.90;;;-144.05;70.35;125687.94;5078667;28;20027;-88
2022/10/13 07:18:33;;;;;;;15.15;7.78;;;12.40;99.90;;;-144.05;70.07;125687.94;5079306;28;20115;-86
2022/10/13 07:21:00;;;;;;;12.90;7.47;;;12.40;99.90;;;-144.05;70.04;125687.94;5079166;28;20035;-86
2022/10/13 07:23:28;;;;;;;15.30;8.20;;;12.40;99.90;;;-144.05;69.61;125687.94;5080385;28;20080;-87
2022/10/13 07:25:56;;;;;;;16.05;8.43;;;12.60;99.90;;;-144.05;69.26;125687.94;5078784;28;20032;-87
2022/10/13 07:28:24;;;;;;;12.95;7.30;;;12.60;99.90;;;-144.05;68.79;125687.94;5062259;28;20029;-88
2022/10/13 07:30:50;;;;;;;14.23;7.97;;;12.70;99.90;;;-144.05;68.90;125687.94;5078883;28;20029;-86
2022/10/13 07:33:17;;;;;;;15.55;7.47;;;12.80;99.90;;;-144.05;67.92;125687.94;5062657;28;20091;-86
2022/10/13 07:35:43;;;;;;;13.30;7.20;;;12.90;99.90;;;-144.05;67.60;125687.94;5062530;28;20028;-89
2022/10/13 07:38:08;;;;;;;17.17;7.20;;;13.00;99.90;;;-144.05;67.43;125687.94;5062523;28;20028;-88
2022/10/13 07:40:34;;;;;;;13.43;7.50;;;13.10;99.90;;;-144.05;67.01;125687.94;5063180;28;20395;-88
2022/10/13 07:43:01;;;;;;;15.50;7.72;;;13.20;99.90;;;-144.05;66.19;125687.94;5072673;28;20025;-86
2022/10/13 07:45:27;;;;;;;13.65;6.88;;;13.50;99.90;;;-144.05;64.18;125687.94;5094744;28;20021;-85
2022/10/13 07:47:53;;;;;;;13.63;7.43;;;13.90;99.90;;;-144.05;63.56;125687.94;5093170;28;20024;-86
2022/10/13 07:50:19;;;;;;;15.70;7.28;;;14.10;99.90;;;-144.05;63.19;125687.94;5067227;28;20496;-89
2022/10/13 07:52:45;;;;;;;14.52;7.60;;;14.40;99.90;;;-144.05;63.42;125687.94;5076580;28;20507;-85
2022/10/13 07:55:11;;;;;;;13.00;6.60;;;14.60;99.90;;;-144.05;61.87;125687.94;5057783;28;20396;-86
2022/10/13 07:57:37;;;;;;;15.18;6.72;;;14.80;99.90;;;-144.05;61.81;125687.94;5059857;28;20036;-86
2022/10/13 08:00:05;;;;;;;13.20;6.47;;;14.80;99.90;;;-144.05;61.54;125687.94;5077951;28;20033;-87
2022/10/13 08:02:33;;;;;;;13.90;6.30;;;14.80;99.90;;;-144.05;61.74;125687.94;5078473;28;20028;-85
2022/10/13 08:04:59;;;;;;;12.88;6.70;;;14.70;99.90;;;-144.05;62.30;125687.94;5060423;28;20054;-88
2022/10/13 08:07:25;;;;;;;11.73;6.85;;;14.60;99.90;;;-144.05;62.67;125687.94;5079129;28;20421;-86
2022/10/13 08:09:51;;;;;;;13.13;6.30;;;14.50;99.90;;;-144.05;63.11;125687.94;5079242;28;20073;-86
2022/10/13 08:12:17;;;;;;;14.23;6.90;;;14.40;99.90;;;-144.05;63.27;125687.94;5060213;28;20056;-84
2022/10/13 08:14:42;;;;;;;14.05;7.93;;;14.40;99.90;;;-144.05;64.10;125687.94;5060495;28;20048;-84
2022/10/13 08:17:08;;;;;;;16.30;6.82;;;14.30;99.90;;;-144.05;64.04;125687.94;5077420;28;20032;-84
2022/10/13 08:19:34;;;;;;;12.73;7.13;;;14.40;99.90;;;-144.05;64.36;125687.94;5080167;28;20070;-84
2022/10/13 08:22:00;;;;;;;11.98;7.00;;;14.30;99.90;;;-144.05;63.96;125687.94;5078591;28;20098;-86
2022/10/13 08:24:27;;;;;;;12.43;7.00;;;14.40;99.90;;;-144.05;64.07;125687.94;5075330;28;20033;-88
2022/10/13 08:26:54;;;;;;;11.75;6.80;;;14.40;99.90;;;-144.05;63.42;125687.94;5073861;28;20514;-85
2022/10/13 08:29:20;;;;;;;14.05;7.00;;;14.50;99.90;;;-144.05;62.80;125687.94;5057192;28;20440;-87
2022/10/13 08:31:45;;;;;;;15.45;7.00;;;14.50;99.90;;;-144.05;63.08;125687.94;5074744;28;20392;-88
2022/10/13 08:34:12;;;;;;;12.88;6.13;;;14.50;99.90;;;-144.05;62.44;125687.94;5074114;28;20036;-86
2022/10/13 08:36:39;;;;;;;10.90;6.05;;;14.60;99.90;;;-144.05;62.24;125687.94;5074824;28;20484;-84
2022/10/13 08:39:05;;;;;;;14.27;6.63;;;14.60;99.90;;;-144.05;63.02;125687.94;5075738;28;20064;-88
2022/10/13 08:41:39;;;;;;;15.48;6.57;;;14.60;99.90;;;-144.05;62.13;125687.94;5057359;28;20439;-86
2022/10/13 08:44:19;;;;;;;12.18;6.53;;;14.70;99.90;;;-144.05;62.33;125687.94;5076473;28;20096;-87
2022/10/13 08:47:39;;;;;;;17.13;7.13;;;14.70;99.90;;;-144.05;62.72;125687.94;5056681;28;20473;-83
2022/10/13 08:50:16;;;;;;;12.30;6.80;;;14.70;99.90;;;-144.05;62.06;125687.94;5056905;28;20036;-87
2022/10/13 08:53:01;;;;;;;13.25;5.85;;;14.70;99.90;;;-144.05;62.11;125687.94;5074571;28;20035;-87
2022/10/13 08:55:40;;;;;;;18.65;6.93;;;14.80;99.90;;;-144.05;61.97;125687.94;5074068;28;20036;-87
2022/10/13 08:58:27;;;;;;;16.00;7.82;;;14.90;99.90;;;-144.05;62.31;125687.94;5056309;28;20051;-85
2022/10/13 09:01:11;;;;;;;13.05;6.45;;;15.00;99.90;;;-144.05;61.92;125687.94;5072563;28;20064;-87
2022/10/13 09:04:09;;;;;;;15.15;6.00;;;15.10;99.90;;;-144.05;60.99;125687.94;5074989;28;20041;-86
2022/10/13 09:07:02;;;;;;;13.90;6.72;;;15.20;99.90;;;-144.05;60.63;125687.94;5057521;28;20044;-86
2022/10/13 09:09:28;;;;;;;15.20;7.40;;;15.30;99.90;;;-144.05;60.94;125687.94;5059533;28;20373;-87
2022/10/13 09:11:53;;;;;;;11.38;6.25;;;15.30;99.90;;;-144.05;61.94;125687.94;5080691;28;20028;-88
2022/10/13 09:14:36;;;;;;;15.82;7.28;;;15.30;99.90;;;-144.05;61.67;125687.94;5067142;28;20067;-86
2022/10/13 09:17:26;;;;;;;15.20;7.03;;;15.40;99.90;;;-144.05;60.41;125687.94;5079097;28;20097;-89
2022/10/13 09:20:26;;;;;;;13.93;7.40;;;15.40;99.90;;;-144.05;60.63;125687.94;5077186;28;20033;-84
2022/10/13 09:23:20;;;;;;;12.35;6.55;;;15.60;99.90;;;-144.05;59.51;125687.94;5074457;28;20024;-86
2022/10/13 09:25:51;;;;;;;14.57;6.03;;;15.70;99.90;;;-144.05;59.43;125687.94;5073675;28;20086;-87
2022/10/13 09:28:31;;;;;;;13.75;6.32;;;15.80;99.90;;;-144.05;59.66;125687.94;5072783;28;20105;-87
2022/10/13 09:31:27;;;;;;;14.38;6.70;;;15.70;99.90;;;-144.05;60.14;125687.94;5056509;28;20245;-85
2022/10/13 09:34:23;;;;;;;14.85;7.35;;;15.70;99.90;;;-144.05;59.74;125687.94;5074077;28;20032;-86
2022/10/13 09:37:05;;;;;;;13.52;6.18;;;15.90;99.90;;;-144.05;58.84;125687.94;5074003;28;20089;-86
2022/10/13 09:39:33;;;;;;;11.90;5.97;;;16.10;99.90;;;-144.05;58.94;125687.94;5056952;28;20036;-86
2022/10/13 09:42:27;;;;;;;10.80;6.25;;;16.30;99.90;;;-144.05;57.86;125687.94;5058194;28;20029;-87
2022/10/13 09:45:13;;;;;;;10.52;6.03;;;16.50;99.90;;;-144.05;56.98;125687.94;5074952;28;20075;-87
2022/10/13 09:47:41;;;;;;;10.57;6.38;;;16.80;99.90;;;-144.05;56.33;125687.94;4969656;28;20038;-84
2022/10/13 09:50:30;;;;;;;8.55;6.15;;;16.80;99.90;;;-144.05;56.83;125687.94;5011876;28;20029;-87
2022/10/13 09:53:28;;;;;;;10.77;5.88;;;16.90;99.90;;;-144.05;54.28;125687.94;5033873;28;20033;-86
2022/10/13 09:56:40;;;;;;;14.32;6.43;;;17.50;99.90;;;-144.05;52.80;125687.94;5033778;28;20091;-86
2022/10/13 09:59:34;;;;;;;15.15;5.65;;;18.20;99.90;;;-144.05;52.04;125687.94;5035458;28;20058;-87
2022/10/13 10:02:47;;;;;;;14.23;6.43;;;18.50;99.90;;;-144.05;50.79;125687.94;5035057;28;20073;-84
2022/10/13 10:05:50;;;;;;;8.88;5.72;;;18.50;99.90;;;-144.05;51.29;125687.94;5009423;28;20137;-86
2022/10/13 10:08:40;;;;;;;11.43;5.32;;;18.20;99.90;;;-144.05;52.80;125687.94;5034976;28;20029;-85
2022/10/13 10:11:21;;;;;;;14.13;5.90;;;17.80;99.90;;;-144.05;52.66;125687.94;5035348;28;20120;-87
2022/10/13 10:13:47;;;;;;;10.30;5.07;;;17.60;99.90;;;-144.05;52.54;125687.94;5019072;28;20048;-87